Aviation Digital Data Service (ADDS)

Output produced by METARs form (0350 UTC 26 June 2019)
found at http://www.aviationweather.gov/metar/data/
 
Forecast for: ELLX (LUXEMBOURG (AUT), LU)
Text: TAF ELLX 252300Z 2600/2706 34005KT CAVOK
Forecast period: 0000 to 0300 UTC 26 June 2019
Forecast type: FROM: standard forecast or significant change
Winds: from the NNW (340 degrees) at 6 MPH (5 knots; 2.6 m/s)
Visibility: 6 or more miles 10+ km)
Ceiling: unknown
Clouds: missing
Weather: NSW  (no significant weather)
Text: BECMG 2603/2607 04008KT
Forecast period: 0300 UTC 26 June 2019 to 0600 UTC 27 June 2019
Forecast type: BECOMING: Conditions expected to become as follows by 0700 UTC 26 June 2019
Winds: from the NE (40 degrees) at 9 MPH (8 knots; 4.1 m/s)
Visibility: 6 or more miles 10+ km)
Ceiling: unknown
Clouds: missing
Weather: NSW  (no significant weather)
Text: TEMPO 2612/2620 15006KT
Forecast period: 1200 to 2000 UTC 26 June 2019
Forecast type: TEMPORARY: The following changes expected for less than half the time period
Winds: from the SSE (150 degrees) at 7 MPH (6 knots; 3.1 m/s)
Visibility: missing
Ceiling: unknown
Clouds: missing
Weather: no significant weather forecast for this period